createdAt,value
2023-05-15T00:02:15.851Z,5.43
2023-05-15T00:04:43.040Z,5.55
2023-05-15T00:07:10.272Z,5.15
2023-05-15T00:09:37.506Z,5.32
2023-05-15T00:12:04.681Z,4.43
2023-05-15T00:14:31.789Z,4.68
2023-05-15T00:16:58.918Z,5.18
2023-05-15T00:19:26.045Z,6.35
2023-05-15T00:21:53.881Z,4.95
2023-05-15T00:24:22.257Z,5.38
2023-05-15T00:26:49.448Z,4.80
2023-05-15T00:29:16.571Z,5.38
2023-05-15T00:31:43.693Z,6.82
2023-05-15T00:34:10.831Z,6.05
2023-05-15T00:36:38.066Z,7.35
2023-05-15T00:39:05.189Z,5.28
2023-05-15T00:41:32.938Z,5.80
2023-05-15T00:44:01.118Z,9.40
2023-05-15T00:46:28.964Z,5.88
2023-05-15T00:48:56.756Z,5.47
2023-05-15T00:51:23.879Z,4.93
2023-05-15T00:53:54.984Z,5.47
2023-05-15T00:56:22.339Z,4.72
2023-05-15T00:58:52.804Z,5.80
2023-05-15T01:01:19.987Z,5.22
2023-05-15T01:03:47.212Z,5.97
2023-05-15T01:06:14.438Z,5.22
2023-05-15T01:08:46.402Z,6.10
2023-05-15T01:11:14.720Z,5.15
2023-05-15T01:13:41.935Z,7.90
2023-05-15T01:16:09.622Z,5.07
2023-05-15T01:18:37.234Z,5.68
2023-05-15T01:21:19.676Z,6.72
2023-05-15T01:23:47.072Z,6.03
2023-05-15T01:26:17.238Z,5.38
2023-05-15T01:28:49.211Z,4.88
2023-05-15T01:31:18.234Z,5.63
2023-05-15T01:33:47.732Z,6.22
2023-05-15T01:36:33.664Z,5.85
2023-05-15T01:39:02.321Z,6.22
2023-05-15T01:41:32.240Z,5.47
2023-05-15T01:44:11.595Z,6.07
2023-05-15T01:46:44.735Z,6.35
2023-05-15T01:49:13.807Z,6.55
2023-05-15T01:51:42.488Z,6.53
2023-05-15T01:54:09.690Z,7.70
2023-05-15T01:56:37.315Z,7.85
2023-05-15T01:59:05.230Z,8.13
2023-05-15T02:01:33.736Z,6.30
2023-05-15T02:04:04.674Z,6.65
2023-05-15T02:06:32.379Z,6.90
2023-05-15T02:08:59.644Z,9.00
2023-05-15T02:11:26.753Z,7.10
2023-05-15T02:13:55.603Z,8.95
2023-05-15T02:16:22.826Z,10.13
2023-05-15T02:18:50.093Z,11.73
2023-05-15T02:21:17.252Z,10.13
2023-05-15T02:23:44.364Z,9.57
2023-05-15T02:26:29.650Z,8.80
2023-05-15T02:29:11.800Z,10.15
2023-05-15T02:31:42.473Z,9.07
2023-05-15T02:34:32.987Z,9.07
2023-05-15T02:37:01.520Z,9.65
2023-05-15T02:39:29.798Z,9.73
2023-05-15T02:41:57.459Z,12.07
2023-05-15T02:44:25.533Z,11.90
2023-05-15T02:46:53.466Z,10.88
2023-05-15T02:49:21.393Z,11.98
2023-05-15T02:51:48.518Z,11.05
2023-05-15T02:54:15.865Z,11.73
2023-05-15T02:56:43.016Z,14.13
2023-05-15T02:59:10.181Z,12.80
2023-05-15T03:01:37.340Z,15.02
2023-05-15T03:04:04.622Z,12.52
2023-05-15T03:06:31.764Z,10.95
2023-05-15T03:08:58.952Z,9.55
2023-05-15T03:11:26.096Z,12.82
2023-05-15T03:13:53.242Z,13.07
2023-05-15T03:16:20.466Z,10.20
2023-05-15T03:18:47.643Z,9.55
2023-05-15T03:21:14.883Z,12.07
2023-05-15T03:23:42.011Z,10.32
2023-05-15T03:26:09.112Z,10.00
2023-05-15T03:28:36.306Z,9.73
2023-05-15T03:31:04.917Z,10.60
2023-05-15T03:33:32.367Z,10.27
2023-05-15T03:35:59.477Z,9.68
2023-05-15T03:38:26.682Z,10.25
2023-05-15T03:40:53.796Z,9.55
2023-05-15T03:43:20.909Z,11.00
2023-05-15T03:45:48.026Z,9.38
2023-05-15T03:48:15.212Z,9.48
2023-05-15T03:50:42.343Z,9.15
2023-05-15T03:53:09.473Z,10.27
2023-05-15T03:55:36.722Z,10.60
2023-05-15T03:58:04.060Z,9.02
2023-05-15T04:00:31.206Z,9.93
2023-05-15T04:02:58.472Z,9.38
2023-05-15T04:05:25.845Z,9.20
2023-05-15T04:07:53.211Z,8.68
2023-05-15T04:10:20.462Z,11.75
2023-05-15T04:12:48.247Z,10.27
2023-05-15T04:15:15.337Z,11.00
2023-05-15T04:17:42.930Z,9.80
2023-05-15T04:20:11.310Z,9.65
2023-05-15T04:22:38.397Z,10.27
2023-05-15T04:25:05.750Z,9.80
2023-05-15T04:27:32.973Z,11.95
2023-05-15T04:30:01.790Z,11.07
2023-05-15T04:32:29.016Z,14.32
2023-05-15T04:34:56.214Z,10.60
2023-05-15T04:37:23.336Z,11.95
2023-05-15T04:39:50.446Z,10.77
2023-05-15T04:42:17.574Z,11.45
2023-05-15T04:44:44.810Z,13.18
2023-05-15T04:47:11.984Z,12.05
2023-05-15T04:49:39.893Z,12.70
2023-05-15T04:52:07.003Z,11.15
2023-05-15T04:54:34.255Z,10.77
2023-05-15T04:57:01.565Z,11.05
2023-05-15T04:59:29.029Z,13.90
2023-05-15T05:01:56.291Z,11.23
2023-05-15T05:04:24.376Z,10.90
2023-05-15T05:06:51.477Z,12.68
2023-05-15T05:09:19.937Z,10.57
2023-05-15T05:11:47.750Z,13.70
2023-05-15T05:14:15.649Z,12.80
2023-05-15T05:16:45.605Z,9.65
2023-05-15T05:19:12.728Z,11.23
2023-05-15T05:21:39.882Z,8.95
2023-05-15T05:24:07.093Z,11.50
2023-05-15T05:26:34.240Z,11.00
2023-05-15T05:29:01.362Z,13.43
2023-05-15T05:31:28.537Z,13.10
2023-05-15T05:33:56.016Z,13.90
2023-05-15T05:36:23.096Z,11.73
2023-05-15T05:38:50.418Z,11.10
2023-05-15T05:41:17.597Z,13.80
2023-05-15T05:43:44.763Z,12.32
2023-05-15T05:46:11.932Z,11.52
2023-05-15T05:48:39.104Z,13.95
2023-05-15T05:51:06.266Z,11.95
2023-05-15T05:53:33.558Z,13.75
2023-05-15T05:56:01.258Z,10.95
2023-05-15T05:58:29.992Z,10.13
2023-05-15T06:00:57.397Z,12.73
2023-05-15T06:03:24.973Z,11.02
2023-05-15T06:05:52.947Z,10.23
2023-05-15T06:08:20.415Z,11.55
2023-05-15T06:10:48.204Z,13.60
2023-05-15T06:13:15.427Z,10.13
2023-05-15T06:15:42.963Z,11.45
2023-05-15T06:18:10.272Z,12.98
2023-05-15T06:20:37.504Z,13.65
2023-05-15T06:23:04.698Z,11.68
2023-05-15T06:25:32.775Z,9.68
2023-05-15T06:27:59.904Z,11.57
2023-05-15T06:30:27.291Z,10.23
2023-05-15T06:32:54.797Z,9.80
2023-05-15T06:35:24.108Z,10.82
2023-05-15T06:37:52.296Z,14.38
2023-05-15T06:40:19.426Z,12.93
2023-05-15T06:42:47.221Z,10.35
2023-05-15T06:45:14.355Z,9.25
2023-05-15T06:47:41.495Z,9.30
2023-05-15T06:50:08.905Z,9.07
2023-05-15T06:52:35.992Z,8.63
2023-05-15T06:55:03.168Z,11.20
2023-05-15T06:57:30.244Z,9.27
2023-05-15T06:59:57.367Z,10.10
2023-05-15T07:02:24.635Z,8.77
2023-05-15T07:04:51.894Z,9.45
2023-05-15T07:07:19.035Z,8.60
2023-05-15T07:09:50.265Z,7.68
2023-05-15T07:12:17.428Z,8.98
2023-05-15T07:14:44.553Z,6.75
2023-05-15T07:17:12.021Z,9.38
2023-05-15T07:19:39.344Z,8.05
2023-05-15T07:22:06.518Z,9.00
2023-05-15T07:24:33.642Z,8.18
2023-05-15T07:27:00.764Z,7.70
2023-05-15T07:29:27.928Z,7.38
2023-05-15T07:31:55.340Z,7.45
2023-05-15T07:34:23.476Z,6.35
2023-05-15T07:36:50.607Z,5.45
2023-05-15T07:39:17.729Z,5.43
2023-05-15T07:41:46.936Z,5.45
2023-05-15T07:44:14.114Z,4.55
2023-05-15T07:46:41.304Z,5.50
2023-05-15T07:49:08.527Z,7.05
2023-05-15T07:51:35.640Z,4.82
2023-05-15T07:54:04.131Z,7.95
2023-05-15T07:56:31.708Z,5.35
2023-05-15T07:58:58.900Z,4.53
2023-05-15T08:01:26.023Z,6.22
2023-05-15T08:03:53.183Z,5.25
2023-05-15T08:06:20.504Z,4.95
2023-05-15T08:08:47.596Z,5.68
2023-05-15T08:11:14.785Z,4.20
2023-05-15T08:13:41.887Z,6.60
2023-05-15T08:16:09.187Z,6.00
2023-05-15T08:18:36.390Z,4.32
2023-05-15T08:21:04.766Z,6.93
2023-05-15T08:23:31.971Z,7.93
2023-05-15T08:25:59.344Z,4.82
2023-05-15T08:28:26.509Z,3.42
2023-05-15T08:30:53.690Z,3.10
2023-05-15T08:33:20.853Z,4.50
2023-05-15T08:35:48.011Z,3.83
2023-05-15T08:38:15.115Z,4.20
2023-05-15T08:40:47.059Z,4.30
2023-05-15T08:43:15.605Z,5.00
2023-05-15T08:45:42.733Z,3.30
2023-05-15T08:48:21.170Z,3.42
2023-05-15T08:50:48.545Z,6.30
2023-05-15T08:53:16.044Z,3.28
2023-05-15T08:55:43.315Z,3.22
2023-05-15T08:58:10.458Z,3.50
2023-05-15T09:00:38.087Z,4.60
2023-05-15T09:03:05.321Z,4.57
2023-05-15T09:05:32.581Z,4.18
2023-05-15T09:08:01.940Z,4.25
2023-05-15T09:10:29.498Z,4.28
2023-05-15T09:12:57.691Z,4.25
2023-05-15T09:15:25.905Z,5.20
2023-05-15T09:17:53.404Z,4.40
2023-05-15T09:20:28.024Z,5.15
2023-05-15T09:22:55.809Z,4.78
2023-05-15T09:25:42.684Z,4.18
2023-05-15T09:28:11.008Z,6.60
2023-05-15T09:30:38.801Z,4.13
2023-05-15T09:33:06.095Z,4.50
2023-05-15T09:35:41.000Z,5.13
2023-05-15T09:40:35.367Z,3.80
2023-05-15T09:43:02.575Z,5.35
2023-05-15T09:45:30.391Z,5.32
2023-05-15T09:48:00.747Z,6.20
2023-05-15T09:50:37.596Z,5.15
2023-05-15T09:53:05.230Z,4.45
2023-05-15T09:55:33.482Z,6.85
2023-05-15T09:58:10.673Z,4.35
2023-05-15T10:00:48.768Z,5.32
2023-05-15T10:03:16.507Z,4.60
2023-05-15T10:05:44.463Z,4.57
2023-05-15T10:08:12.653Z,5.47
2023-05-15T10:10:39.942Z,7.05
2023-05-15T10:13:08.078Z,4.35
2023-05-15T10:15:35.682Z,4.57
2023-05-15T10:18:04.971Z,5.40
2023-05-15T10:20:35.683Z,5.00
2023-05-15T10:23:04.662Z,4.97
2023-05-15T10:25:31.766Z,4.57
2023-05-15T10:27:58.924Z,4.30
2023-05-15T10:30:28.147Z,8.82
2023-05-15T10:32:56.878Z,5.40
2023-05-15T10:35:24.324Z,5.20
2023-05-15T10:37:51.512Z,4.68
2023-05-15T10:40:18.715Z,7.25
2023-05-15T10:42:47.074Z,4.85
2023-05-15T10:45:14.369Z,5.90
2023-05-15T10:47:42.311Z,5.20
2023-05-15T10:50:10.114Z,6.43
2023-05-15T10:52:38.548Z,5.45
2023-05-15T10:55:23.909Z,4.30
2023-05-15T10:57:51.935Z,4.93
2023-05-15T11:00:31.494Z,11.18
2023-05-15T11:02:59.245Z,8.68
2023-05-15T11:05:26.934Z,12.90
2023-05-15T11:08:12.725Z,7.57
2023-05-15T11:10:40.030Z,4.80
2023-05-15T11:13:07.210Z,4.43
2023-05-15T11:15:44.544Z,5.80
2023-05-15T11:18:12.352Z,9.95
2023-05-15T11:20:39.543Z,7.55
2023-05-15T11:23:07.054Z,40.53
2023-05-15T11:25:35.385Z,9.90
2023-05-15T11:28:03.527Z,8.25
2023-05-15T11:30:36.710Z,7.25
2023-05-15T11:33:08.916Z,7.60
2023-05-15T11:35:42.053Z,5.30
2023-05-15T11:38:12.266Z,12.50
2023-05-15T11:40:46.446Z,7.35
2023-05-15T11:43:19.703Z,6.43
2023-05-15T11:45:53.036Z,8.80
2023-05-15T11:48:20.721Z,7.57
2023-05-15T11:50:54.130Z,8.85
2023-05-15T11:53:23.953Z,12.55
2023-05-15T11:55:53.146Z,7.72
2023-05-15T11:58:21.205Z,7.32
2023-05-15T12:00:49.042Z,6.70
2023-05-15T12:03:17.321Z,6.88
2023-05-15T12:05:57.533Z,8.13
2023-05-15T12:08:27.307Z,5.85
2023-05-15T12:10:54.444Z,6.93
2023-05-15T12:13:21.727Z,6.72
2023-05-15T12:15:49.032Z,5.90
2023-05-15T12:18:16.162Z,8.20
2023-05-15T12:20:46.812Z,6.88
2023-05-15T12:23:17.351Z,6.40
2023-05-15T12:25:45.635Z,8.27
2023-05-15T12:28:13.328Z,8.73
2023-05-15T12:30:40.605Z,6.50
2023-05-15T12:33:08.324Z,7.85
2023-05-15T12:35:43.343Z,6.78
2023-05-15T12:40:38.022Z,5.22
2023-05-15T12:43:06.426Z,5.97
2023-05-15T12:45:35.255Z,5.97
2023-05-15T12:48:03.430Z,6.18
2023-05-15T12:50:32.904Z,5.97
2023-05-15T12:53:01.894Z,5.45
2023-05-15T12:55:33.514Z,6.15
2023-05-15T12:58:02.299Z,7.63
2023-05-15T13:00:29.944Z,5.35
2023-05-15T13:02:57.738Z,6.72
2023-05-15T13:05:25.536Z,5.88
2023-05-15T13:07:53.080Z,5.85
2023-05-15T13:10:24.152Z,4.28
2023-05-15T13:12:55.071Z,4.80
2023-05-15T13:15:32.188Z,6.80
2023-05-15T13:18:00.335Z,4.57
2023-05-15T13:20:33.260Z,4.75
2023-05-15T13:23:01.453Z,3.45
2023-05-15T13:25:31.310Z,3.72
2023-05-15T13:27:59.976Z,3.53
2023-05-15T13:30:28.255Z,3.92
2023-05-15T13:32:55.928Z,4.53
2023-05-15T13:35:23.572Z,5.20
2023-05-15T13:37:50.885Z,4.38
2023-05-15T13:40:18.133Z,5.25
2023-05-15T13:42:45.606Z,4.10
2023-05-15T13:45:13.915Z,5.05
2023-05-15T13:47:41.464Z,5.68
2023-05-15T13:50:09.581Z,4.65
2023-05-15T13:52:36.926Z,5.10
2023-05-15T13:55:07.712Z,3.35
2023-05-15T13:57:34.805Z,4.95
2023-05-15T14:00:01.972Z,4.10
2023-05-15T14:02:29.511Z,5.25
2023-05-15T14:04:56.693Z,4.05
2023-05-15T14:07:24.197Z,3.95
2023-05-15T14:09:51.546Z,5.60
2023-05-15T14:12:18.835Z,4.20
2023-05-15T14:14:46.990Z,4.90
2023-05-15T14:17:15.017Z,4.30
2023-05-15T14:19:42.244Z,5.03
2023-05-15T14:22:09.460Z,5.72
2023-05-15T14:24:36.560Z,3.95
2023-05-15T14:27:04.167Z,4.40
2023-05-15T14:29:31.626Z,4.20
2023-05-15T14:31:59.341Z,5.45
2023-05-15T14:34:26.462Z,5.25
2023-05-15T14:36:53.560Z,4.90
2023-05-15T14:39:20.655Z,3.20
2023-05-15T14:41:47.843Z,3.78
2023-05-15T14:44:14.925Z,2.60
2023-05-15T14:46:43.185Z,3.22
2023-05-15T14:49:10.488Z,2.67
2023-05-15T14:51:37.719Z,2.67
2023-05-15T14:54:05.105Z,2.58
2023-05-15T14:56:32.388Z,3.03
2023-05-15T14:58:59.577Z,2.95
2023-05-15T15:01:26.757Z,3.35
2023-05-15T15:03:53.976Z,2.72
2023-05-15T15:06:21.134Z,3.63
2023-05-15T15:08:48.309Z,5.22
2023-05-15T15:11:15.449Z,2.72
2023-05-15T15:13:42.588Z,3.45
2023-05-15T15:16:09.936Z,4.00
2023-05-15T15:18:37.087Z,6.80
2023-05-15T15:21:04.530Z,3.25
2023-05-15T15:23:31.697Z,6.68
2023-05-15T15:25:58.847Z,3.65
2023-05-15T15:28:26.465Z,4.65
2023-05-15T15:30:53.988Z,3.88
2023-05-15T15:33:21.127Z,4.57
2023-05-15T15:35:48.241Z,5.65
2023-05-15T15:38:15.434Z,4.40
2023-05-15T15:40:42.559Z,5.28
2023-05-15T15:43:09.840Z,8.98
2023-05-15T15:45:37.027Z,4.00
2023-05-15T15:48:04.412Z,4.20
2023-05-15T15:50:31.608Z,3.40
2023-05-15T15:52:59.325Z,3.13
2023-05-15T15:55:26.506Z,4.60
2023-05-15T15:57:54.051Z,3.90
2023-05-15T16:00:21.301Z,3.97
2023-05-15T16:02:48.536Z,4.03
2023-05-15T16:05:15.790Z,3.58
2023-05-15T16:07:42.961Z,2.70
2023-05-15T16:10:13.437Z,2.45
2023-05-15T16:12:42.267Z,2.60
2023-05-15T16:15:21.674Z,4.50
2023-05-15T16:17:53.296Z,2.90
2023-05-15T16:20:21.740Z,2.25
2023-05-15T16:22:48.896Z,2.20
2023-05-15T16:25:16.046Z,2.15
2023-05-15T16:27:43.207Z,2.03
2023-05-15T16:30:11.534Z,2.50
2023-05-15T16:32:38.756Z,1.92
2023-05-15T16:35:06.376Z,3.30
2023-05-15T16:37:34.113Z,4.45
2023-05-15T16:40:01.237Z,2.13
2023-05-15T16:42:28.586Z,2.28
2023-05-15T16:44:55.696Z,2.08
2023-05-15T16:47:22.801Z,2.28
2023-05-15T16:49:50.589Z,3.28
2023-05-15T16:52:17.816Z,2.08
2023-05-15T16:54:45.075Z,2.17
2023-05-15T16:57:12.249Z,2.20
2023-05-15T16:59:39.360Z,2.08
2023-05-15T17:02:06.589Z,2.95
2023-05-15T17:04:35.282Z,1.88
2023-05-15T17:07:03.279Z,2.15
2023-05-15T17:09:30.392Z,2.13
2023-05-15T17:11:59.538Z,3.35
2023-05-15T17:14:27.051Z,2.17
2023-05-15T17:16:54.175Z,3.53
2023-05-15T17:19:21.358Z,2.30
2023-05-15T17:21:48.550Z,2.10
2023-05-15T17:24:15.913Z,3.28
2023-05-15T17:26:43.056Z,4.78
2023-05-15T17:29:10.961Z,9.55
2023-05-15T17:31:39.165Z,7.10
2023-05-15T17:34:06.323Z,3.53
2023-05-15T17:36:33.690Z,2.88
2023-05-15T17:39:01.204Z,3.35
2023-05-15T17:41:28.468Z,3.58
2023-05-15T17:43:55.757Z,3.15
2023-05-15T17:46:22.945Z,2.88
2023-05-15T17:48:50.105Z,3.13
2023-05-15T17:51:17.198Z,3.13
2023-05-15T17:53:44.318Z,4.45
2023-05-15T17:56:11.497Z,3.00
2023-05-15T17:58:38.627Z,3.67
2023-05-15T18:01:06.053Z,4.43
2023-05-15T18:03:34.160Z,3.78
2023-05-15T18:06:01.425Z,3.80
2023-05-15T18:08:28.602Z,3.65
2023-05-15T18:10:55.821Z,4.95
2023-05-15T18:13:23.289Z,4.78
2023-05-15T18:15:50.941Z,4.28
2023-05-15T18:18:18.060Z,3.97
2023-05-15T18:20:45.219Z,3.80
2023-05-15T18:23:12.431Z,4.90
2023-05-15T18:25:39.599Z,7.18
2023-05-15T18:28:06.768Z,5.40
2023-05-15T18:30:34.366Z,4.97
2023-05-15T18:33:01.675Z,4.25
2023-05-15T18:35:29.008Z,4.85
2023-05-15T18:37:56.321Z,4.90
2023-05-15T18:40:24.628Z,3.65
2023-05-15T18:42:51.772Z,4.35
2023-05-15T18:45:22.114Z,3.50
2023-05-15T18:47:49.528Z,4.50
2023-05-15T18:50:16.784Z,4.47
2023-05-15T18:52:44.240Z,5.13
2023-05-15T18:55:12.051Z,5.88
2023-05-15T18:57:39.443Z,4.03
2023-05-15T19:00:09.891Z,4.15
2023-05-15T19:02:40.153Z,4.55
2023-05-15T19:05:08.068Z,3.85
2023-05-15T19:07:36.324Z,4.60
2023-05-15T19:10:03.658Z,6.60
2023-05-15T19:12:30.767Z,5.50
2023-05-15T19:14:57.906Z,6.63
2023-05-15T19:17:25.910Z,4.15
2023-05-15T19:19:53.093Z,4.15
2023-05-15T19:22:20.814Z,4.13
2023-05-15T19:24:48.216Z,7.15
2023-05-15T19:27:15.377Z,4.43
2023-05-15T19:29:42.986Z,5.22
2023-05-15T19:32:10.325Z,5.68
2023-05-15T19:34:37.740Z,5.38
2023-05-15T19:37:04.893Z,7.10
2023-05-15T19:39:33.586Z,4.85
2023-05-15T19:42:00.790Z,5.75
2023-05-15T19:44:27.928Z,6.55
2023-05-15T19:46:55.045Z,4.50
2023-05-15T19:49:22.148Z,4.50
2023-05-15T19:51:49.275Z,4.82
2023-05-15T19:54:16.557Z,5.20
2023-05-15T19:56:43.680Z,4.03
2023-05-15T19:59:10.796Z,5.00
2023-05-15T20:01:38.368Z,4.60
2023-05-15T20:04:05.706Z,7.80
2023-05-15T20:06:33.163Z,5.00
2023-05-15T20:09:00.563Z,4.97
2023-05-15T20:11:27.688Z,5.68
2023-05-15T20:13:54.825Z,6.03
2023-05-15T20:16:22.078Z,5.53
2023-05-15T20:18:50.431Z,5.57
2023-05-15T20:21:17.699Z,4.82
2023-05-15T20:23:44.963Z,5.75
2023-05-15T20:26:12.106Z,4.53
2023-05-15T20:28:39.198Z,10.15
2023-05-15T20:31:06.465Z,6.53
2023-05-15T20:33:33.647Z,4.32
2023-05-15T20:36:00.856Z,5.75
2023-05-15T20:38:28.374Z,4.20
2023-05-15T20:40:56.586Z,4.07
2023-05-15T20:43:23.908Z,3.95
2023-05-15T20:45:51.714Z,8.65
2023-05-15T20:48:18.915Z,4.45
2023-05-15T20:50:46.197Z,5.05
2023-05-15T20:53:13.455Z,4.78
2023-05-15T20:55:40.711Z,4.18
2023-05-15T20:58:07.883Z,4.63
2023-05-15T21:00:35.055Z,4.90
2023-05-15T21:03:02.708Z,4.38
2023-05-15T21:05:29.920Z,4.80
2023-05-15T21:07:57.057Z,4.05
2023-05-15T21:10:24.338Z,4.43
2023-05-15T21:12:51.542Z,4.03
2023-05-15T21:15:18.651Z,5.05
2023-05-15T21:17:46.021Z,4.47
2023-05-15T21:20:13.357Z,5.85
2023-05-15T21:22:41.042Z,5.43
2023-05-15T21:25:08.401Z,4.65
2023-05-15T21:27:35.524Z,4.05
2023-05-15T21:30:02.697Z,3.30
2023-05-15T21:32:30.249Z,4.00
2023-05-15T21:34:57.345Z,4.22
2023-05-15T21:37:24.464Z,3.63
2023-05-15T21:39:51.586Z,3.95
2023-05-15T21:42:18.775Z,9.13
2023-05-15T21:44:45.895Z,3.63
2023-05-15T21:47:13.027Z,5.18
2023-05-15T21:49:40.116Z,3.40
2023-05-15T21:52:07.251Z,5.75
2023-05-15T21:54:34.371Z,4.45
2023-05-15T21:57:01.449Z,4.90
2023-05-15T21:59:28.554Z,3.50
2023-05-15T22:01:55.966Z,5.05
2023-05-15T22:04:23.522Z,4.47
2023-05-15T22:06:50.969Z,5.50
2023-05-15T22:09:18.072Z,3.42
2023-05-15T22:11:45.169Z,4.10
2023-05-15T22:14:12.479Z,3.30
2023-05-15T22:16:39.705Z,3.45
2023-05-15T22:19:08.744Z,3.45
2023-05-15T22:21:37.251Z,3.85
2023-05-15T22:24:04.455Z,4.45
2023-05-15T22:26:33.180Z,3.53
2023-05-15T22:29:00.307Z,6.88
2023-05-15T22:31:27.413Z,5.30
2023-05-15T22:33:54.564Z,3.88
2023-05-15T22:36:21.805Z,5.65
2023-05-15T22:38:48.993Z,4.80
2023-05-15T22:41:16.121Z,3.90
2023-05-15T22:43:43.265Z,4.00
2023-05-15T22:46:10.401Z,4.05
2023-05-15T22:48:37.750Z,4.25
2023-05-15T22:51:05.118Z,3.33
2023-05-15T22:53:32.288Z,3.00
2023-05-15T22:55:59.404Z,4.00
2023-05-15T22:58:26.520Z,4.50
2023-05-15T23:00:53.630Z,5.65
2023-05-15T23:03:20.837Z,4.40
2023-05-15T23:05:48.003Z,3.85
2023-05-15T23:08:15.112Z,3.80
2023-05-15T23:10:42.245Z,3.75
2023-05-15T23:13:09.332Z,4.47
2023-05-15T23:15:36.475Z,7.47
2023-05-15T23:18:03.686Z,4.75
2023-05-15T23:20:30.872Z,3.33
2023-05-15T23:22:58.074Z,3.55
2023-05-15T23:25:25.444Z,3.63
2023-05-15T23:27:52.980Z,3.70
2023-05-15T23:30:20.196Z,3.60
2023-05-15T23:32:47.369Z,3.88
2023-05-15T23:35:14.548Z,3.53
2023-05-15T23:37:41.638Z,3.30
2023-05-15T23:40:09.277Z,3.50
2023-05-15T23:42:36.368Z,4.57
2023-05-15T23:45:03.555Z,5.03
2023-05-15T23:47:30.686Z,3.85
2023-05-15T23:49:57.898Z,4.03
2023-05-15T23:52:24.991Z,3.83
2023-05-15T23:54:52.099Z,5.28
2023-05-15T23:57:19.309Z,4.53
2023-05-15T23:59:46.490Z,4.85
